createdAt,value
2018-04-27T00:00:07.600Z,4.77
2018-04-27T00:01:07.597Z,4.77
2018-04-27T00:02:07.565Z,4.84
2018-04-27T00:03:07.543Z,4.70
2018-04-27T00:04:07.524Z,4.61
2018-04-27T00:05:07.539Z,4.59
2018-04-27T00:06:07.485Z,4.55
2018-04-27T00:07:07.488Z,4.51
2018-04-27T00:08:07.446Z,4.54
2018-04-27T00:09:07.431Z,4.54
2018-04-27T00:10:07.397Z,4.44
2018-04-27T00:11:07.385Z,4.46
2018-04-27T00:12:07.362Z,4.52
2018-04-27T00:13:07.359Z,4.51
2018-04-27T00:14:07.322Z,4.55
2018-04-27T00:15:07.296Z,4.58
2018-04-27T00:16:07.284Z,4.50
2018-04-27T00:17:07.254Z,4.52
2018-04-27T00:18:07.238Z,4.50
2018-04-27T00:19:07.220Z,4.51
2018-04-27T00:20:07.196Z,4.52
2018-04-27T00:21:07.190Z,4.50
2018-04-27T00:22:07.164Z,4.46
2018-04-27T00:23:07.160Z,4.55
2018-04-27T00:24:07.126Z,4.57
2018-04-27T00:25:07.103Z,4.59
2018-04-27T00:26:07.072Z,4.76
2018-04-27T00:27:07.066Z,4.76
2018-04-27T00:28:07.035Z,4.77
2018-04-27T00:29:07.013Z,4.77
2018-04-27T00:30:07.000Z,4.79
2018-04-27T00:31:06.965Z,4.80
2018-04-27T00:32:06.953Z,4.77
2018-04-27T00:33:06.943Z,4.80
2018-04-27T00:34:06.914Z,4.79
2018-04-27T00:35:06.885Z,4.70
2018-04-27T00:36:06.870Z,4.73
2018-04-27T00:37:06.876Z,4.67
2018-04-27T00:38:06.824Z,4.73
2018-04-27T00:39:06.814Z,4.86
2018-04-27T00:40:06.785Z,5.01
2018-04-27T00:41:06.782Z,5.12
2018-04-27T00:42:06.759Z,5.13
2018-04-27T00:43:06.730Z,5.07
2018-04-27T00:44:06.705Z,5.13
2018-04-27T00:45:06.715Z,5.14
2018-04-27T00:46:06.667Z,5.22
2018-04-27T00:47:06.644Z,5.13
2018-04-27T00:48:06.628Z,5.16
2018-04-27T00:49:06.606Z,5.10
2018-04-27T00:50:06.590Z,5.07
2018-04-27T00:51:06.565Z,4.99
2018-04-27T00:52:06.549Z,4.89
2018-04-27T00:53:06.520Z,4.94
2018-04-27T00:54:06.510Z,4.77
2018-04-27T00:55:06.497Z,4.77
2018-04-27T00:56:06.462Z,4.75
2018-04-27T00:57:06.446Z,4.69
2018-04-27T00:58:06.429Z,4.70
2018-04-27T00:59:06.404Z,4.62
2018-04-27T01:00:06.379Z,4.59
2018-04-27T01:01:06.360Z,4.61
2018-04-27T01:02:06.366Z,4.59
2018-04-27T01:03:06.331Z,4.61
2018-04-27T01:04:06.301Z,4.65
2018-04-27T01:05:06.287Z,4.70
2018-04-27T01:06:06.264Z,4.65
2018-04-27T01:07:06.258Z,4.72
2018-04-27T01:08:06.216Z,4.65
2018-04-27T01:09:06.206Z,4.70
2018-04-27T01:10:06.177Z,4.70
2018-04-27T01:11:06.151Z,4.73
2018-04-27T01:12:06.145Z,4.72
2018-04-27T01:13:06.126Z,4.70
2018-04-27T01:14:06.100Z,4.67
2018-04-27T01:15:06.072Z,4.62
2018-04-27T01:16:06.069Z,4.70
2018-04-27T01:17:06.032Z,4.70
2018-04-27T01:18:06.032Z,4.67
2018-04-27T01:19:05.999Z,4.64
2018-04-27T01:20:05.990Z,4.59
2018-04-27T01:21:05.955Z,4.59
2018-04-27T01:22:05.932Z,4.51
2018-04-27T01:23:05.914Z,4.50
2018-04-27T01:24:05.894Z,4.46
2018-04-27T01:25:05.875Z,4.39
2018-04-27T01:26:05.846Z,4.28
2018-04-27T01:27:05.850Z,4.43
2018-04-27T01:28:05.808Z,4.50
2018-04-27T01:29:05.795Z,4.54
2018-04-27T01:30:05.764Z,4.51
2018-04-27T01:31:05.755Z,4.57
2018-04-27T01:32:05.727Z,4.54
2018-04-27T01:33:05.711Z,4.50
2018-04-27T01:34:05.689Z,4.51
2018-04-27T01:35:05.666Z,4.42
2018-04-27T01:36:05.650Z,4.52
2018-04-27T01:37:05.625Z,4.36
2018-04-27T01:38:05.615Z,4.34
2018-04-27T01:39:05.595Z,4.28
2018-04-27T01:40:05.643Z,4.25
2018-04-27T01:41:05.540Z,4.29
2018-04-27T01:42:05.522Z,4.32
2018-04-27T01:43:05.498Z,4.43
2018-04-27T01:44:05.523Z,4.51
2018-04-27T01:45:05.485Z,4.54
2018-04-27T01:46:05.447Z,4.51
2018-04-27T01:47:05.425Z,4.51
2018-04-27T01:48:05.403Z,4.47
2018-04-27T01:49:05.390Z,4.51
2018-04-27T01:50:05.361Z,4.52
2018-04-27T01:51:05.361Z,4.58
2018-04-27T01:52:05.317Z,4.55
2018-04-27T01:53:05.305Z,4.51
2018-04-27T01:54:05.288Z,4.51
2018-04-27T01:55:05.256Z,4.42
2018-04-27T01:56:05.241Z,4.29
2018-04-27T01:57:05.228Z,4.28
2018-04-27T01:58:05.196Z,4.32
2018-04-27T01:59:05.177Z,4.28
2018-04-27T02:00:05.147Z,4.25
2018-04-27T02:01:05.132Z,4.24
2018-04-27T02:02:05.122Z,4.32
2018-04-27T02:03:05.096Z,4.32
2018-04-27T02:04:05.074Z,4.16
2018-04-27T02:05:05.070Z,4.18
2018-04-27T02:06:05.032Z,4.03
2018-04-27T02:07:05.012Z,3.92
2018-04-27T02:08:04.999Z,3.90
2018-04-27T02:09:04.964Z,3.92
2018-04-27T02:10:04.948Z,3.72
2018-04-27T02:11:04.935Z,3.76
2018-04-27T02:12:04.983Z,3.79
2018-04-27T02:13:04.887Z,3.75
2018-04-27T02:14:04.859Z,3.72
2018-04-27T02:15:04.847Z,3.78
2018-04-27T02:16:04.821Z,3.71
2018-04-27T02:17:04.806Z,3.68
2018-04-27T02:18:04.773Z,3.61
2018-04-27T02:19:04.754Z,3.46
2018-04-27T02:20:04.735Z,3.44
2018-04-27T02:21:04.722Z,3.36
2018-04-27T02:22:04.700Z,3.44
2018-04-27T02:23:04.671Z,3.42
2018-04-27T02:24:04.654Z,3.40
2018-04-27T02:25:04.636Z,3.34
2018-04-27T02:26:04.613Z,3.30
2018-04-27T02:27:04.597Z,3.36
2018-04-27T02:28:04.571Z,3.42
2018-04-27T02:29:04.558Z,3.43
2018-04-27T02:30:04.534Z,3.58
2018-04-27T02:31:04.511Z,3.75
2018-04-27T02:32:04.488Z,3.71
2018-04-27T02:33:04.472Z,3.78
2018-04-27T02:34:04.455Z,3.76
2018-04-27T02:35:04.432Z,3.70
2018-04-27T02:36:04.403Z,3.80
2018-04-27T02:37:04.393Z,3.83
2018-04-27T02:38:04.377Z,3.76
2018-04-27T02:39:04.341Z,3.72
2018-04-27T02:40:04.331Z,3.72
2018-04-27T02:41:04.306Z,3.65
2018-04-27T02:42:04.274Z,3.75
2018-04-27T02:43:04.264Z,3.83
2018-04-27T02:44:04.238Z,3.92
2018-04-27T02:45:04.219Z,3.98
2018-04-27T02:46:04.190Z,4.10
2018-04-27T02:47:04.168Z,4.16
2018-04-27T02:48:04.157Z,4.04
2018-04-27T02:49:04.149Z,3.92
2018-04-27T02:50:04.114Z,3.96
2018-04-27T02:51:04.108Z,3.88
2018-04-27T02:52:04.070Z,3.88
2018-04-27T02:53:04.056Z,3.75
2018-04-27T02:54:04.028Z,3.86
2018-04-27T02:55:04.018Z,3.88
2018-04-27T02:56:03.997Z,3.89
2018-04-27T02:57:03.960Z,3.83
2018-04-27T02:58:03.948Z,3.92
2018-04-27T02:59:03.929Z,3.89
2018-04-27T03:00:03.904Z,3.88
2018-04-27T03:01:03.878Z,3.86
2018-04-27T03:02:03.862Z,3.78
2018-04-27T03:03:03.848Z,3.86
2018-04-27T03:04:03.820Z,3.82
2018-04-27T03:05:03.806Z,3.71
2018-04-27T03:06:03.778Z,3.78
2018-04-27T03:07:03.756Z,3.82
2018-04-27T03:08:03.737Z,3.88
2018-04-27T03:09:03.714Z,3.89
2018-04-27T03:10:03.698Z,3.80
2018-04-27T03:11:03.672Z,3.76
2018-04-27T03:12:03.656Z,3.71
2018-04-27T03:13:03.656Z,3.68
2018-04-27T03:14:03.613Z,3.76
2018-04-27T03:15:03.597Z,3.75
2018-04-27T03:16:03.568Z,3.80
2018-04-27T03:17:03.559Z,3.75
2018-04-27T03:18:03.526Z,3.78
2018-04-27T03:19:03.514Z,3.76
2018-04-27T03:20:03.481Z,3.75
2018-04-27T03:21:03.463Z,3.75
2018-04-27T03:22:03.444Z,3.92
2018-04-27T03:23:03.418Z,3.89
2018-04-27T03:24:03.433Z,3.90
2018-04-27T03:25:03.374Z,3.94
2018-04-27T03:26:04.134Z,3.92
2018-04-27T03:27:03.331Z,4.07
2018-04-27T03:28:03.319Z,4.18
2018-04-27T03:29:03.307Z,4.14
2018-04-27T03:30:03.298Z,4.14
2018-04-27T03:31:03.259Z,4.07
2018-04-27T03:32:03.256Z,4.10
2018-04-27T03:33:03.204Z,4.14
2018-04-27T03:34:03.188Z,4.07
2018-04-27T03:35:03.166Z,4.16
2018-04-27T03:36:03.639Z,4.16
2018-04-27T03:37:03.140Z,4.26
2018-04-27T03:38:03.105Z,4.26
2018-04-27T03:39:03.099Z,4.34
2018-04-27T03:40:03.060Z,4.47
2018-04-27T03:41:03.054Z,4.52
2018-04-27T03:42:03.039Z,4.62
2018-04-27T03:43:03.013Z,4.55
2018-04-27T03:44:02.990Z,4.54
2018-04-27T03:45:02.965Z,4.51
2018-04-27T03:46:02.943Z,4.44
2018-04-27T03:47:02.936Z,4.51
2018-04-27T03:48:02.900Z,4.33
2018-04-27T03:49:02.885Z,4.26
2018-04-27T03:50:02.856Z,4.16
2018-04-27T03:51:02.843Z,4.21
2018-04-27T03:52:02.847Z,4.16
2018-04-27T03:53:02.834Z,4.16
2018-04-27T03:54:02.779Z,4.26
2018-04-27T03:55:02.767Z,4.22
2018-04-27T03:56:02.746Z,4.28
2018-04-27T03:57:02.706Z,4.26
2018-04-27T03:58:02.692Z,4.28
2018-04-27T03:59:02.677Z,4.26
2018-04-27T04:00:02.658Z,4.26
2018-04-27T04:01:02.648Z,4.32
2018-04-27T04:02:02.628Z,4.43
2018-04-27T04:03:03.147Z,4.37
2018-04-27T04:04:02.575Z,4.34
2018-04-27T04:05:02.562Z,4.29
2018-04-27T04:06:02.529Z,4.21
2018-04-27T04:07:02.505Z,4.22
2018-04-27T04:08:02.480Z,4.12
2018-04-27T04:09:02.474Z,4.01
2018-04-27T04:10:02.450Z,3.94
2018-04-27T04:11:02.424Z,3.92
2018-04-27T04:12:02.413Z,3.97
2018-04-27T04:13:02.383Z,3.90
2018-04-27T04:14:02.385Z,3.90
2018-04-27T04:15:02.341Z,3.94
2018-04-27T04:16:02.327Z,3.96
2018-04-27T04:17:02.297Z,3.90
2018-04-27T04:18:02.280Z,3.90
2018-04-27T04:19:02.257Z,3.86
2018-04-27T04:20:02.238Z,3.71
2018-04-27T04:21:02.234Z,3.75
2018-04-27T04:22:02.201Z,3.72
2018-04-27T04:23:02.171Z,3.75
2018-04-27T04:24:02.180Z,3.65
2018-04-27T04:25:02.122Z,3.60
2018-04-27T04:26:02.116Z,3.70
2018-04-27T04:27:02.094Z,3.64
2018-04-27T04:28:02.071Z,3.78
2018-04-27T04:29:02.056Z,3.71
2018-04-27T04:30:02.022Z,3.79
2018-04-27T04:31:02.025Z,3.78
2018-04-27T04:32:01.990Z,3.75
2018-04-27T04:33:01.967Z,3.80
2018-04-27T04:34:01.936Z,3.98
2018-04-27T04:35:01.932Z,3.96
2018-04-27T04:36:01.902Z,4.15
2018-04-27T04:37:01.891Z,4.16
2018-04-27T04:38:01.878Z,4.18
2018-04-27T04:39:01.835Z,4.19
2018-04-27T04:40:01.821Z,4.28
2018-04-27T04:41:01.807Z,4.25
2018-04-27T04:42:01.775Z,4.40
2018-04-27T04:43:01.756Z,4.46
2018-04-27T04:44:01.741Z,4.50
2018-04-27T04:45:01.810Z,4.52
2018-04-27T04:46:01.698Z,4.52
2018-04-27T04:47:01.686Z,4.55
2018-04-27T04:48:01.654Z,4.65
2018-04-27T04:49:01.635Z,4.62
2018-04-27T04:50:01.644Z,4.75
2018-04-27T04:51:01.587Z,4.64
2018-04-27T04:52:01.571Z,4.72
2018-04-27T04:53:01.567Z,4.64
2018-04-27T04:54:01.529Z,4.61
2018-04-27T04:55:01.504Z,4.64
2018-04-27T04:56:01.506Z,4.64
2018-04-27T04:57:01.465Z,4.64
2018-04-27T04:58:01.451Z,4.76
2018-04-27T04:59:01.416Z,4.70
2018-04-27T05:00:01.403Z,4.69
2018-04-27T05:01:01.381Z,4.83
2018-04-27T05:02:02.158Z,4.94
2018-04-27T05:03:01.431Z,4.91
2018-04-27T05:04:01.317Z,5.04
2018-04-27T05:05:01.300Z,5.05
2018-04-27T05:06:01.276Z,4.98
2018-04-27T05:07:02.151Z,5.07
2018-04-27T05:08:01.239Z,5.02
2018-04-27T05:09:01.213Z,4.95
2018-04-27T05:10:01.194Z,4.91
2018-04-27T05:11:01.191Z,4.89
2018-04-27T05:12:01.152Z,4.92
2018-04-27T05:13:01.136Z,5.05
2018-04-27T05:14:01.119Z,5.02
2018-04-27T05:15:01.102Z,5.01
2018-04-27T05:16:01.069Z,5.07
2018-04-27T05:17:01.056Z,5.14
2018-04-27T05:18:01.028Z,5.02
2018-04-27T05:19:01.021Z,5.07
2018-04-27T05:20:00.996Z,5.14
2018-04-27T05:21:00.970Z,5.25
2018-04-27T05:22:00.954Z,5.16
2018-04-27T05:23:00.935Z,5.23
2018-04-27T05:24:00.912Z,5.34
2018-04-27T05:25:00.893Z,5.31
2018-04-27T05:26:00.865Z,5.31
2018-04-27T05:27:00.850Z,5.40
2018-04-27T05:28:00.826Z,5.30
2018-04-27T05:29:00.817Z,5.43
2018-04-27T05:30:00.784Z,5.52
2018-04-27T05:31:00.781Z,5.68
2018-04-27T05:32:00.752Z,5.64
2018-04-27T05:33:00.752Z,5.75
2018-04-27T05:34:00.717Z,5.82
2018-04-27T05:35:00.703Z,5.89
2018-04-27T05:36:00.672Z,6.01
2018-04-27T05:37:00.653Z,6.03
2018-04-27T05:38:00.628Z,6.14
2018-04-27T05:39:00.608Z,6.14
2018-04-27T05:40:00.588Z,6.33
2018-04-27T05:41:00.589Z,6.38
2018-04-27T05:42:00.544Z,6.69
2018-04-27T05:43:00.525Z,6.84
2018-04-27T05:44:00.514Z,6.91
2018-04-27T05:45:00.487Z,7.13
2018-04-27T05:46:00.468Z,7.23
2018-04-27T05:47:00.455Z,7.26
2018-04-27T05:48:00.433Z,7.42
2018-04-27T05:49:00.487Z,7.49
2018-04-27T05:50:00.392Z,7.53
2018-04-27T05:51:00.375Z,7.71
2018-04-27T05:52:00.347Z,7.69
2018-04-27T05:53:00.340Z,7.74
2018-04-27T05:54:00.376Z,7.92
2018-04-27T05:55:00.301Z,7.90
2018-04-27T05:56:00.285Z,7.89
2018-04-27T05:57:00.282Z,7.93
2018-04-27T05:58:00.237Z,8.04
2018-04-27T05:59:00.227Z,8.11
2018-04-27T06:00:00.218Z,8.28
2018-04-27T06:01:00.192Z,8.29
2018-04-27T06:02:00.195Z,8.36
2018-04-27T06:03:00.147Z,8.42
2018-04-27T06:04:00.145Z,8.58
2018-04-27T06:05:00.125Z,8.72
2018-04-27T06:06:00.101Z,8.97
2018-04-27T06:07:00.084Z,9.01
2018-04-27T06:08:00.055Z,9.13
2018-04-27T06:09:00.044Z,9.23
2018-04-27T06:10:00.021Z,9.42
2018-04-27T06:11:00.005Z,9.61
2018-04-27T06:11:59.985Z,9.79
2018-04-27T06:12:59.996Z,9.83
2018-04-27T06:13:59.947Z,9.94
2018-04-27T06:14:59.951Z,10.25
2018-04-27T06:15:59.918Z,10.58
2018-04-27T06:16:59.922Z,10.78
2018-04-27T06:17:59.890Z,10.89
2018-04-27T06:18:59.872Z,11.17
2018-04-27T06:19:59.861Z,11.24
2018-04-27T06:20:59.840Z,11.24
2018-04-27T06:21:59.835Z,11.38
2018-04-27T06:22:59.823Z,11.43
2018-04-27T06:23:59.790Z,11.35
2018-04-27T06:24:59.779Z,11.20
2018-04-27T06:25:59.763Z,11.20
2018-04-27T06:26:59.742Z,11.20
2018-04-27T06:27:59.726Z,11.25
2018-04-27T06:28:59.716Z,11.38
2018-04-27T06:29:59.699Z,11.61
2018-04-27T06:30:59.681Z,11.68
2018-04-27T06:31:59.672Z,11.78
2018-04-27T06:32:59.675Z,11.89
2018-04-27T06:33:59.641Z,11.86
2018-04-27T06:34:59.625Z,11.89
2018-04-27T06:35:59.621Z,11.86
2018-04-27T06:36:59.593Z,11.50
2018-04-27T06:37:59.609Z,11.50
2018-04-27T06:38:59.577Z,11.57
2018-04-27T06:39:59.561Z,11.71
2018-04-27T06:40:59.538Z,11.89
2018-04-27T06:41:59.526Z,11.97
2018-04-27T06:42:59.513Z,12.13
2018-04-27T06:43:59.501Z,12.30
2018-04-27T06:44:59.477Z,12.41
2018-04-27T06:45:59.468Z,12.27
2018-04-27T06:46:59.451Z,12.44
2018-04-27T06:47:59.439Z,12.51
2018-04-27T06:48:59.432Z,12.54
2018-04-27T06:49:59.429Z,12.42
2018-04-27T06:50:59.398Z,12.45
2018-04-27T06:51:59.388Z,12.44
2018-04-27T06:52:59.369Z,12.42
2018-04-27T06:53:59.352Z,12.45
2018-04-27T06:54:59.343Z,12.26
2018-04-27T06:55:59.323Z,12.30
2018-04-27T06:56:59.308Z,12.29
2018-04-27T06:57:59.292Z,12.29
2018-04-27T06:58:59.280Z,12.51
2018-04-27T06:59:59.267Z,12.64
2018-04-27T07:00:59.263Z,12.67
2018-04-27T07:01:59.234Z,12.87
2018-04-27T07:02:59.228Z,12.71
2018-04-27T07:03:59.211Z,12.74
2018-04-27T07:04:59.204Z,12.84
2018-04-27T07:05:59.180Z,13.03
2018-04-27T07:06:59.174Z,13.15
2018-04-27T07:07:59.155Z,13.11
2018-04-27T07:08:59.154Z,13.49
2018-04-27T07:09:59.135Z,13.61
2018-04-27T07:10:59.119Z,13.81
2018-04-27T07:12:00.728Z,14.14
2018-04-27T07:12:59.092Z,14.39
2018-04-27T07:13:59.076Z,14.60
2018-04-27T07:14:59.069Z,14.46
2018-04-27T07:15:59.072Z,14.29
2018-04-27T07:16:59.079Z,14.61
2018-04-27T07:17:59.024Z,14.83
2018-04-27T07:18:59.018Z,14.69
2018-04-27T07:19:59.002Z,14.65
2018-04-27T07:20:59.001Z,14.84
2018-04-27T07:21:58.976Z,14.83
2018-04-27T07:22:58.970Z,14.98
2018-04-27T07:23:58.953Z,15.11
2018-04-27T07:24:58.951Z,15.15
2018-04-27T07:25:59.018Z,15.24
2018-04-27T07:26:58.925Z,15.08
2018-04-27T07:27:58.916Z,15.24
2018-04-27T07:28:58.903Z,15.11
2018-04-27T07:29:58.890Z,15.13
2018-04-27T07:30:58.877Z,15.31
2018-04-27T07:31:58.874Z,15.46
2018-04-27T07:32:58.868Z,15.28
2018-04-27T07:33:58.871Z,15.15
2018-04-27T07:34:58.840Z,14.62
2018-04-27T07:35:58.839Z,14.74
2018-04-27T07:36:58.877Z,14.61
2018-04-27T07:37:58.804Z,14.65
2018-04-27T07:38:58.817Z,14.47
2018-04-27T07:39:58.788Z,14.71
2018-04-27T07:40:58.789Z,14.88
2018-04-27T07:41:58.769Z,14.83
2018-04-27T07:42:58.762Z,15.05
2018-04-27T07:43:58.756Z,15.01
2018-04-27T07:44:58.740Z,15.38
2018-04-27T07:45:58.734Z,15.52
2018-04-27T07:46:58.707Z,16.07
2018-04-27T07:47:58.701Z,16.50
2018-04-27T07:48:58.696Z,16.92
2018-04-27T07:49:58.679Z,17.04
2018-04-27T07:50:58.679Z,17.03
2018-04-27T07:51:58.662Z,16.42
2018-04-27T07:52:58.651Z,16.50
2018-04-27T07:53:58.659Z,16.73
2018-04-27T07:54:58.639Z,16.90
2018-04-27T07:55:58.625Z,16.85
2018-04-27T07:56:58.622Z,17.03
2018-04-27T07:57:58.613Z,17.07
2018-04-27T07:58:58.602Z,16.59
2018-04-27T07:59:58.590Z,16.34
2018-04-27T08:00:58.584Z,16.23
2018-04-27T08:01:58.604Z,16.03
2018-04-27T08:02:58.642Z,15.92
2018-04-27T08:03:58.545Z,15.68
2018-04-27T08:04:58.548Z,15.85
2018-04-27T08:05:58.533Z,15.94
2018-04-27T08:06:58.527Z,16.38
2018-04-27T08:07:58.527Z,17.03
2018-04-27T08:08:58.519Z,17.30
2018-04-27T08:09:58.494Z,17.07
2018-04-27T08:10:58.505Z,16.90
2018-04-27T08:11:58.479Z,16.83
2018-04-27T08:12:58.467Z,16.50
2018-04-27T08:13:58.463Z,16.25
2018-04-27T08:14:58.447Z,16.40
2018-04-27T08:15:58.444Z,16.30
2018-04-27T08:16:58.438Z,16.42
2018-04-27T08:17:58.429Z,16.59
2018-04-27T08:18:58.416Z,17.00
2018-04-27T08:19:58.428Z,17.20
2018-04-27T08:20:58.389Z,17.54
2018-04-27T08:21:58.392Z,17.30
2018-04-27T08:22:58.383Z,17.36
2018-04-27T08:23:58.376Z,17.41
2018-04-27T08:24:58.371Z,17.51
2018-04-27T08:25:58.396Z,17.76
2018-04-27T08:26:58.347Z,17.66
2018-04-27T08:27:58.334Z,17.97
2018-04-27T08:28:58.335Z,18.00
2018-04-27T08:29:58.341Z,18.03
2018-04-27T08:30:58.328Z,18.04
2018-04-27T08:31:58.302Z,17.53
2018-04-27T08:32:58.297Z,17.51
2018-04-27T08:33:58.284Z,17.53
2018-04-27T08:34:58.302Z,17.35
2018-04-27T08:35:58.287Z,17.54
2018-04-27T08:36:58.264Z,17.78
2018-04-27T08:37:58.253Z,18.03
2018-04-27T08:38:58.254Z,18.10
2018-04-27T08:39:58.237Z,18.03
2018-04-27T08:40:58.250Z,18.07
2018-04-27T08:41:58.227Z,17.89
2018-04-27T08:42:58.315Z,18.00
2018-04-27T08:43:58.215Z,18.13
2018-04-27T08:44:58.202Z,17.99
2018-04-27T08:45:58.190Z,18.21
2018-04-27T08:46:58.202Z,18.22
2018-04-27T08:47:58.184Z,18.28
2018-04-27T08:48:58.167Z,18.37
2018-04-27T08:49:58.164Z,17.87
2018-04-27T08:50:58.161Z,17.44
2018-04-27T08:51:58.148Z,17.40
2018-04-27T08:52:58.141Z,17.41
2018-04-27T08:53:58.142Z,17.70
2018-04-27T08:54:58.132Z,17.48
2018-04-27T08:55:58.120Z,17.53
2018-04-27T08:56:58.114Z,17.41
2018-04-27T08:57:58.099Z,17.41
2018-04-27T08:58:58.116Z,17.38
2018-04-27T08:59:58.093Z,17.44
2018-04-27T09:00:58.072Z,17.28
2018-04-27T09:01:58.079Z,17.41
2018-04-27T09:02:58.066Z,17.59
2018-04-27T09:03:58.062Z,17.51
2018-04-27T09:04:58.047Z,17.82
2018-04-27T09:05:58.032Z,18.06
2018-04-27T09:06:58.024Z,18.04
2018-04-27T09:07:58.043Z,17.74
2018-04-27T09:08:58.017Z,17.89
2018-04-27T09:09:58.012Z,17.88
2018-04-27T09:10:57.998Z,18.15
2018-04-27T09:11:57.979Z,18.28
2018-04-27T09:12:57.976Z,18.29
2018-04-27T09:13:57.966Z,18.37
2018-04-27T09:14:57.963Z,18.64
2018-04-27T09:15:57.960Z,18.34
2018-04-27T09:16:57.950Z,18.47
2018-04-27T09:17:57.938Z,18.64
2018-04-27T09:18:57.931Z,18.72
2018-04-27T09:19:57.921Z,18.59
2018-04-27T09:20:57.927Z,18.59
2018-04-27T09:21:57.915Z,18.86
2018-04-27T09:22:57.896Z,19.06
2018-04-27T09:23:57.889Z,18.92
2018-04-27T09:24:57.877Z,19.14
2018-04-27T09:25:57.874Z,19.20
2018-04-27T09:26:57.920Z,19.50
2018-04-27T09:27:57.853Z,19.53
2018-04-27T09:28:57.867Z,19.46
2018-04-27T09:29:57.844Z,19.08
2018-04-27T09:30:57.835Z,18.83
2018-04-27T09:31:57.831Z,18.36
2018-04-27T09:32:57.825Z,18.21
2018-04-27T09:33:57.805Z,18.21
2018-04-27T09:34:57.815Z,18.24
2018-04-27T09:35:57.816Z,18.46
2018-04-27T09:36:57.792Z,18.40
2018-04-27T09:37:57.783Z,18.39
2018-04-27T09:38:57.780Z,18.12
2018-04-27T09:39:57.780Z,18.33
2018-04-27T09:40:57.789Z,18.33
2018-04-27T09:41:57.780Z,18.40
2018-04-27T09:42:57.761Z,18.17
2018-04-27T09:43:57.741Z,18.29
2018-04-27T09:44:57.742Z,18.67
2018-04-27T09:45:57.723Z,18.72
2018-04-27T09:46:57.719Z,18.29
2018-04-27T09:47:57.712Z,18.25
2018-04-27T09:48:57.709Z,18.36
2018-04-27T09:49:57.708Z,18.72
2018-04-27T09:50:57.694Z,18.82
2018-04-27T09:51:57.678Z,18.80
2018-04-27T09:52:57.675Z,18.73
2018-04-27T09:53:57.671Z,19.14
2018-04-27T09:54:57.661Z,18.99
2018-04-27T09:55:57.653Z,18.36
2018-04-27T09:56:57.654Z,18.33
2018-04-27T09:57:57.640Z,18.58
2018-04-27T09:58:57.630Z,18.62
2018-04-27T09:59:57.630Z,18.24
2018-04-27T10:00:57.620Z,18.44
2018-04-27T10:01:57.617Z,18.29
2018-04-27T10:02:57.608Z,18.33
2018-04-27T10:03:57.604Z,18.47
2018-04-27T10:04:57.598Z,18.73
2018-04-27T10:05:57.585Z,19.10
2018-04-27T10:06:57.581Z,19.05
2018-04-27T10:07:57.581Z,19.08
2018-04-27T10:08:57.575Z,19.13
2018-04-27T10:09:57.562Z,19.11
2018-04-27T10:10:57.551Z,19.13
2018-04-27T10:11:57.555Z,18.94
2018-04-27T10:12:57.550Z,19.13
2018-04-27T10:13:57.531Z,19.14
2018-04-27T10:14:57.552Z,19.29
2018-04-27T10:15:57.525Z,19.39
2018-04-27T10:16:57.521Z,18.97
2018-04-27T10:17:57.528Z,18.97
2018-04-27T10:18:57.514Z,19.06
2018-04-27T10:19:57.509Z,19.08
2018-04-27T10:20:57.509Z,19.10
2018-04-27T10:21:57.496Z,19.17
2018-04-27T10:22:57.516Z,19.13
2018-04-27T10:23:57.504Z,18.94
2018-04-27T10:24:57.492Z,19.32
2018-04-27T10:25:57.484Z,19.54
2018-04-27T10:26:57.497Z,19.90
2018-04-27T10:27:57.479Z,19.61
2018-04-27T10:28:57.475Z,19.63
2018-04-27T10:29:57.468Z,19.39
2018-04-27T10:30:57.512Z,19.54
2018-04-27T10:31:57.477Z,19.72
2018-04-27T10:32:57.458Z,19.60
2018-04-27T10:33:57.455Z,19.78
2018-04-27T10:34:57.454Z,19.70
2018-04-27T10:35:57.438Z,19.84
2018-04-27T10:36:57.450Z,19.84
2018-04-27T10:37:57.442Z,19.91
2018-04-27T10:38:57.434Z,20.05
2018-04-27T10:39:57.445Z,20.13
2018-04-27T10:40:57.440Z,20.02
2018-04-27T10:41:57.434Z,20.12
2018-04-27T10:42:57.427Z,19.78
2018-04-27T10:43:57.444Z,19.60
2018-04-27T10:44:57.430Z,19.68
2018-04-27T10:45:57.421Z,19.79
2018-04-27T10:46:57.421Z,19.80
2018-04-27T10:47:57.428Z,19.88
2018-04-27T10:48:57.427Z,20.15
2018-04-27T10:49:57.416Z,20.16
2018-04-27T10:50:57.415Z,20.21
2018-04-27T10:51:57.436Z,20.28
2018-04-27T10:52:57.408Z,20.27
2018-04-27T10:53:57.408Z,20.56
2018-04-27T10:54:57.405Z,20.50
2018-04-27T10:55:57.415Z,20.15
2018-04-27T10:56:57.405Z,20.03
2018-04-27T10:57:57.408Z,20.06
2018-04-27T10:58:57.402Z,20.21
2018-04-27T10:59:57.405Z,20.53
2018-04-27T11:00:57.406Z,20.86
2018-04-27T11:01:57.403Z,20.96
2018-04-27T11:02:57.415Z,21.13
2018-04-27T11:03:57.411Z,21.26
2018-04-27T11:04:57.423Z,21.01
2018-04-27T11:05:57.415Z,20.58
2018-04-27T11:06:57.396Z,20.51
2018-04-27T11:07:57.396Z,19.93
2018-04-27T11:08:57.406Z,20.30
2018-04-27T11:09:57.406Z,20.23
2018-04-27T11:10:57.430Z,20.35
2018-04-27T11:11:57.420Z,20.65
2018-04-27T11:12:57.410Z,20.53
2018-04-27T11:13:57.403Z,20.53
2018-04-27T11:14:57.401Z,20.84
2018-04-27T11:15:57.401Z,20.84
2018-04-27T11:16:57.607Z,20.69
2018-04-27T11:17:57.413Z,20.77
2018-04-27T11:18:57.410Z,21.05
2018-04-27T11:19:57.417Z,21.13
2018-04-27T11:20:57.414Z,21.21
2018-04-27T11:21:57.421Z,20.91
2018-04-27T11:22:57.420Z,21.11
2018-04-27T11:23:57.417Z,21.06
2018-04-27T11:24:57.444Z,21.05
2018-04-27T11:25:57.421Z,21.39
2018-04-27T11:26:57.424Z,21.51
2018-04-27T11:27:57.427Z,21.08
2018-04-27T11:28:57.532Z,21.06
2018-04-27T11:29:57.430Z,20.81
2018-04-27T11:30:57.427Z,20.99
2018-04-27T11:31:57.440Z,21.05
2018-04-27T11:32:57.437Z,21.05
2018-04-27T11:33:57.437Z,21.09
2018-04-27T11:34:57.437Z,21.20
2018-04-27T11:35:57.443Z,21.48
2018-04-27T11:36:57.443Z,21.88
2018-04-27T11:37:57.453Z,22.10
2018-04-27T11:38:57.452Z,21.98
2018-04-27T11:39:57.467Z,22.10
2018-04-27T11:40:57.459Z,22.02
2018-04-27T11:41:57.460Z,21.94
2018-04-27T11:42:57.460Z,22.17
2018-04-27T11:43:57.485Z,22.44
2018-04-27T11:44:57.475Z,22.69
2018-04-27T11:45:57.472Z,22.69
2018-04-27T11:46:57.476Z,23.08
2018-04-27T11:47:57.485Z,23.20
2018-04-27T11:48:57.511Z,22.84
2018-04-27T11:49:57.494Z,22.72
2018-04-27T11:50:57.494Z,22.53
2018-04-27T11:51:57.488Z,22.17
2018-04-27T11:52:57.501Z,22.20
2018-04-27T11:53:57.514Z,22.46
2018-04-27T11:54:57.510Z,22.80
2018-04-27T11:55:57.514Z,22.92
2018-04-27T11:56:57.530Z,22.53
2018-04-27T11:57:57.523Z,22.35
2018-04-27T11:58:57.531Z,22.49
2018-04-27T11:59:57.537Z,22.54
2018-04-27T12:00:57.539Z,22.50
2018-04-27T12:01:57.543Z,22.41
2018-04-27T12:02:57.542Z,22.60
2018-04-27T12:03:57.552Z,22.44
2018-04-27T12:04:57.559Z,22.41
2018-04-27T12:05:57.598Z,22.43
2018-04-27T12:06:57.580Z,21.85
2018-04-27T12:07:57.568Z,22.12
2018-04-27T12:08:57.564Z,22.19
2018-04-27T12:09:57.679Z,22.67
2018-04-27T12:10:57.577Z,23.17
2018-04-27T12:11:57.572Z,22.99
2018-04-27T12:12:57.599Z,22.77
2018-04-27T12:13:57.593Z,22.99
2018-04-27T12:14:57.603Z,23.39
2018-04-27T12:15:57.599Z,23.15
2018-04-27T12:16:57.619Z,22.78
2018-04-27T12:17:57.616Z,23.24
2018-04-27T12:18:57.654Z,23.46
2018-04-27T12:19:57.651Z,23.08
2018-04-27T12:20:57.651Z,23.08
2018-04-27T12:21:57.642Z,23.19
2018-04-27T12:22:57.638Z,23.29
2018-04-27T12:23:57.641Z,23.31
2018-04-27T12:24:57.644Z,23.31
2018-04-27T12:25:57.688Z,23.38
2018-04-27T12:26:57.648Z,23.39
2018-04-27T12:27:57.657Z,23.49
2018-04-27T12:28:57.668Z,23.35
2018-04-27T12:29:57.672Z,23.38
2018-04-27T12:30:57.744Z,22.69
2018-04-27T12:31:57.681Z,22.39
2018-04-27T12:32:57.675Z,22.59
2018-04-27T12:33:57.691Z,22.52
2018-04-27T12:34:57.693Z,22.86
2018-04-27T12:35:57.697Z,23.27
2018-04-27T12:36:57.697Z,23.87
2018-04-27T12:37:57.700Z,24.12
2018-04-27T12:38:57.816Z,24.24
2018-04-27T12:39:57.706Z,24.50
2018-04-27T12:40:57.716Z,24.05
2018-04-27T12:41:57.723Z,23.65
2018-04-27T12:42:57.716Z,23.82
2018-04-27T12:43:57.739Z,24.04
2018-04-27T12:44:57.735Z,24.23
2018-04-27T12:45:57.731Z,24.52
2018-04-27T12:46:57.739Z,24.53
2018-04-27T12:47:57.746Z,24.59
2018-04-27T12:48:57.745Z,24.83
2018-04-27T12:49:57.748Z,25.17
2018-04-27T12:50:57.790Z,25.31
2018-04-27T12:51:57.765Z,25.61
2018-04-27T12:52:57.764Z,25.47
2018-04-27T12:53:57.768Z,25.64
2018-04-27T12:54:57.782Z,25.44
2018-04-27T12:55:57.777Z,25.37
2018-04-27T12:56:57.778Z,25.44
2018-04-27T12:57:57.792Z,24.61
2018-04-27T12:58:57.790Z,23.92
2018-04-27T12:59:57.810Z,23.75
2018-04-27T13:00:57.852Z,23.53
2018-04-27T13:01:57.813Z,23.39
2018-04-27T13:02:57.819Z,23.82
2018-04-27T13:03:57.819Z,24.23